Terminal Aerodrome Forecast
Issued by NWS Twin Cities, MN

Home | Current Version | Previous Version | Graphics & Text | Print | Product List | Glossary On
Versions: 1 2 3 4 5 6 7 8 9 10 11 12 13
645
FTUS43 KMPX 191303 AAA
TAFSTC
TAF AMD
KSTC 191303Z 1913/2012 01009KT P6SM OVC015
      TEMPO 1913/1915 BKN022
     FM191500 01010KT P6SM FEW025 FEW250
     FM200200 36002KT P6SM SCT250=

USA.gov is the U.S. government's official web portal to all federal, state and local government web resources and services.